createdAt,value
2018-08-09T00:02:53.695Z,101038.32
2018-08-09T00:05:58.626Z,101045.07
2018-08-09T00:09:03.201Z,101055.41
2018-08-09T00:12:07.473Z,101046.33
2018-08-09T00:15:12.429Z,101050.25
2018-08-09T00:18:16.380Z,101050.37
2018-08-09T00:21:20.335Z,101051.69
2018-08-09T00:24:24.636Z,101052.42
2018-08-09T00:27:28.889Z,101047.13
2018-08-09T00:30:32.812Z,101048.08
2018-08-09T00:33:36.795Z,101045.70
2018-08-09T00:36:41.267Z,101047.86
2018-08-09T00:39:45.209Z,101043.38
2018-08-09T00:42:49.399Z,101038.05
2018-08-09T00:45:53.354Z,101038.41
2018-08-09T00:48:57.651Z,101035.32
2018-08-09T00:52:01.658Z,101036.53
2018-08-09T00:55:05.610Z,101040.21
2018-08-09T00:58:15.770Z,101038.78
2018-08-09T01:01:20.047Z,101041.06
2018-08-09T01:04:23.994Z,101038.23
2018-08-09T01:07:28.257Z,101039.53
2018-08-09T01:10:32.541Z,101031.38
2018-08-09T01:13:36.486Z,101036.23
2018-08-09T01:16:40.418Z,101038.34
2018-08-09T01:19:44.980Z,101031.39
2018-08-09T01:25:52.054Z,101031.51
2018-08-09T01:28:56.021Z,101023.72
2018-08-09T01:31:59.956Z,101040.41
2018-08-09T01:35:03.889Z,101032.34
2018-08-09T01:38:08.851Z,101036.50
2018-08-09T01:41:13.768Z,101033.91
2018-08-09T01:44:18.021Z,101031.40
2018-08-09T01:47:21.940Z,101033.66
2018-08-09T01:50:26.192Z,101031.66
2018-08-09T01:53:30.480Z,101035.30
2018-08-09T01:56:34.361Z,101048.08
2018-08-09T01:59:38.261Z,101047.27
2018-08-09T02:02:42.729Z,101045.58
2018-08-09T02:05:47.292Z,101046.27
2018-08-09T02:08:51.265Z,101049.22
2018-08-09T02:11:55.180Z,101050.86
2018-08-09T02:14:59.091Z,101049.68
2018-08-09T02:18:03.009Z,101051.10
2018-08-09T02:21:08.632Z,101045.79
2018-08-09T02:24:12.916Z,101053.83
2018-08-09T02:27:18.076Z,101052.73
2018-08-09T02:30:22.018Z,101058.53
2018-08-09T02:33:25.927Z,101057.70
2018-08-09T02:36:30.180Z,101055.78
2018-08-09T02:39:34.132Z,101056.26
2018-08-09T02:42:38.034Z,101050.70
2018-08-09T02:45:42.089Z,101054.22
2018-08-09T02:48:46.457Z,101052.20
2018-08-09T02:51:50.685Z,101050.20
2018-08-09T02:54:55.126Z,101055.87
2018-08-09T02:58:00.606Z,101051.23
2018-08-09T03:01:04.764Z,101051.81
2018-08-09T03:04:08.707Z,101057.02
2018-08-09T03:07:12.608Z,101063.98
2018-08-09T03:10:16.509Z,101068.83
2018-08-09T03:13:20.728Z,101064.77
2018-08-09T03:16:26.180Z,101065.83
2018-08-09T03:19:30.445Z,101069.60
2018-08-09T03:22:35.684Z,101067.79
2018-08-09T03:25:39.932Z,101073.93
2018-08-09T03:28:43.845Z,101069.20
2018-08-09T03:31:47.758Z,101068.02
2018-08-09T03:34:51.664Z,101070.73
2018-08-09T03:37:55.564Z,101065.97
2018-08-09T03:40:59.733Z,101071.72
2018-08-09T03:44:03.661Z,101071.94
2018-08-09T03:47:07.713Z,101076.87
2018-08-09T03:50:11.968Z,101082.75
2018-08-09T03:53:16.186Z,101090.08
2018-08-09T03:56:20.481Z,101090.06
2018-08-09T03:59:24.468Z,101093.95
2018-08-09T04:02:28.807Z,101091.47
2018-08-09T04:05:32.697Z,101094.95
2018-08-09T04:08:38.545Z,101095.43
2018-08-09T04:11:43.500Z,101097.08
2018-08-09T04:14:47.697Z,101099.44
2018-08-09T04:17:51.969Z,101095.19
2018-08-09T04:20:56.044Z,101088.17
2018-08-09T04:24:00.296Z,101079.66
2018-08-09T04:27:04.208Z,101073.17
2018-08-09T04:30:08.520Z,101080.96
2018-08-09T04:33:12.408Z,101073.28
2018-08-09T04:36:16.392Z,101067.16
2018-08-09T04:39:20.327Z,101072.81
2018-08-09T04:42:24.809Z,101073.76
2018-08-09T04:45:28.782Z,101077.30
2018-08-09T04:48:33.260Z,101076.94
2018-08-09T04:51:37.207Z,101079.53
2018-08-09T04:54:41.119Z,101085.33
2018-08-09T04:57:45.056Z,101083.67
2018-08-09T05:00:48.940Z,101072.70
2018-08-09T05:03:52.884Z,101070.83
2018-08-09T05:06:56.818Z,101079.02
2018-08-09T05:10:06.494Z,101084.80
2018-08-09T05:13:10.747Z,101074.07
2018-08-09T05:16:15.034Z,101083.16
2018-08-09T05:19:19.284Z,101081.22
2018-08-09T05:22:23.522Z,101080.68
2018-08-09T05:25:28.053Z,101089.23
2018-08-09T05:28:33.261Z,101093.19
2018-08-09T05:31:38.123Z,101089.85
2018-08-09T05:34:42.008Z,101093.80
2018-08-09T05:37:46.183Z,101089.34
2018-08-09T05:40:51.445Z,101092.16
2018-08-09T05:43:55.588Z,101094.66
2018-08-09T05:47:00.319Z,101097.53
2018-08-09T05:50:04.671Z,101091.04
2018-08-09T05:53:08.606Z,101087.53
2018-08-09T05:56:12.706Z,101085.05
2018-08-09T05:59:16.949Z,101086.86
2018-08-09T06:02:21.184Z,101086.39
2018-08-09T06:05:25.479Z,101087.84
2018-08-09T06:08:30.625Z,101090.80
2018-08-09T06:11:34.578Z,101093.90
2018-08-09T06:14:38.683Z,101097.67
2018-08-09T06:17:43.135Z,101086.83
2018-08-09T06:20:47.028Z,101099.30
2018-08-09T06:23:51.480Z,101105.67
2018-08-09T06:26:55.374Z,101111.25
2018-08-09T06:29:59.545Z,101115.27
2018-08-09T06:33:03.445Z,101120.02
2018-08-09T06:36:07.936Z,101111.02
2018-08-09T06:39:11.884Z,101102.41
2018-08-09T06:42:15.800Z,101092.80
2018-08-09T06:45:19.747Z,101098.97
2018-08-09T06:48:24.222Z,101112.22
2018-08-09T06:51:28.401Z,101122.27
2018-08-09T06:54:33.656Z,101111.52
2018-08-09T06:57:37.919Z,101107.23
2018-08-09T07:00:42.829Z,101110.33
2018-08-09T07:03:47.149Z,101111.37
2018-08-09T07:06:51.267Z,101116.22
2018-08-09T07:09:55.361Z,101119.78
2018-08-09T07:12:59.713Z,101108.52
2018-08-09T07:16:05.239Z,101114.20
2018-08-09T07:19:09.453Z,101114.69
2018-08-09T07:22:13.389Z,101115.13
2018-08-09T07:25:18.340Z,101114.31
2018-08-09T07:28:23.609Z,101114.66
2018-08-09T07:31:27.517Z,101110.72
2018-08-09T07:34:31.421Z,101108.94
2018-08-09T07:37:36.399Z,101112.69
2018-08-09T07:40:40.621Z,101117.42
2018-08-09T07:43:44.881Z,101104.69
2018-08-09T07:46:50.053Z,101107.98
2018-08-09T07:49:54.300Z,101103.11
2018-08-09T07:52:58.229Z,101108.02
2018-08-09T07:56:02.111Z,101107.27
2018-08-09T07:59:07.558Z,101111.41
2018-08-09T08:02:11.490Z,101103.44
2018-08-09T08:05:15.593Z,101100.30
2018-08-09T08:08:19.518Z,101092.80
2018-08-09T08:11:23.732Z,101086.56
2018-08-09T08:14:27.664Z,101077.27
2018-08-09T08:17:32.875Z,101071.19
2018-08-09T08:20:37.337Z,101062.20
2018-08-09T08:23:41.461Z,101061.06
2018-08-09T08:26:45.679Z,101064.33
2018-08-09T08:29:50.040Z,101062.20
2018-08-09T08:32:53.976Z,101052.78
2018-08-09T08:35:58.196Z,101044.97
2018-08-09T08:39:02.235Z,101039.90
2018-08-09T08:42:07.175Z,101042.19
2018-08-09T08:45:13.339Z,101042.05
2018-08-09T08:48:18.261Z,101041.58
2018-08-09T08:51:23.414Z,101047.15
2018-08-09T08:54:27.328Z,101035.09
2018-08-09T08:57:31.256Z,101028.44
2018-08-09T09:00:35.145Z,101031.72
2018-08-09T09:03:39.304Z,101028.94
2018-08-09T09:06:43.252Z,101022.23
2018-08-09T09:09:47.473Z,101012.89
2018-08-09T09:12:51.628Z,101016.15
2018-08-09T09:15:55.548Z,101018.09
2018-08-09T09:19:00.920Z,101024.00
2018-08-09T09:22:05.108Z,101025.45
2018-08-09T09:25:10.343Z,101024.75
2018-08-09T09:28:15.269Z,101018.33
2018-08-09T09:31:19.521Z,101019.09
2018-08-09T09:34:23.410Z,101021.49
2018-08-09T09:37:27.367Z,101022.09
2018-08-09T09:40:31.721Z,101032.23
2018-08-09T09:43:35.663Z,101020.68
2018-08-09T09:46:39.566Z,101018.64
2018-08-09T09:49:44.093Z,101006.92
2018-08-09T09:52:48.172Z,100999.64
2018-08-09T09:55:52.467Z,100996.59
2018-08-09T09:58:56.919Z,100998.78
2018-08-09T10:02:01.893Z,100994.94
2018-08-09T10:05:05.960Z,100983.80
2018-08-09T10:08:09.922Z,100981.70
2018-08-09T10:11:14.213Z,100976.61
2018-08-09T10:14:18.129Z,100972.05
2018-08-09T10:17:23.066Z,100966.80
2018-08-09T10:20:26.976Z,100955.17
2018-08-09T10:23:30.991Z,100954.02
2018-08-09T10:26:35.032Z,100944.85
2018-08-09T10:29:38.961Z,100950.81
2018-08-09T10:32:42.872Z,100951.16
2018-08-09T10:35:47.117Z,100950.17
2018-08-09T10:38:52.101Z,100948.22
2018-08-09T10:41:56.000Z,100940.16
2018-08-09T10:45:00.923Z,100936.06
2018-08-09T10:48:05.181Z,100929.80
2018-08-09T10:51:09.116Z,100931.13
2018-08-09T10:54:13.244Z,100930.13
2018-08-09T10:57:17.136Z,100927.64
2018-08-09T11:00:21.058Z,100930.30
2018-08-09T11:03:25.287Z,100923.22
2018-08-09T11:06:29.507Z,100928.80
2018-08-09T11:09:33.565Z,100919.22
2018-08-09T11:12:37.813Z,100909.98
2018-08-09T11:15:42.009Z,100906.20
2018-08-09T11:18:46.088Z,100902.02
2018-08-09T11:21:50.000Z,100898.36
2018-08-09T11:24:54.284Z,100900.17
2018-08-09T11:27:58.272Z,100885.66
2018-08-09T11:31:03.244Z,100879.04
2018-08-09T11:34:07.460Z,100877.36
2018-08-09T11:37:11.897Z,100873.52
2018-08-09T11:40:15.916Z,100869.23
2018-08-09T11:43:19.863Z,100865.06
2018-08-09T11:46:23.796Z,100863.56
2018-08-09T11:49:28.784Z,100863.16
2018-08-09T11:52:32.912Z,100861.15
2018-08-09T11:55:36.809Z,100859.79
2018-08-09T11:58:40.994Z,100849.91
2018-08-09T12:01:46.266Z,100848.59
2018-08-09T12:04:50.292Z,100817.28
2018-08-09T12:07:54.169Z,100796.86
2018-08-09T12:10:58.105Z,100779.72
2018-08-09T12:14:02.026Z,100766.05
2018-08-09T12:17:06.269Z,100749.72
2018-08-09T12:20:10.196Z,100744.91
2018-08-09T12:23:14.380Z,100747.85
2018-08-09T12:26:18.348Z,100751.63
2018-08-09T12:29:22.692Z,100755.58
2018-08-09T12:32:26.921Z,100757.88
2018-08-09T12:35:30.848Z,100751.28
2018-08-09T12:38:34.828Z,100745.64
2018-08-09T12:41:39.012Z,100737.42
2018-08-09T12:44:42.897Z,100742.00
2018-08-09T12:47:46.845Z,100738.69
2018-08-09T12:50:50.800Z,100729.08
2018-08-09T12:53:54.916Z,100734.33
2018-08-09T12:56:58.924Z,100730.63
2018-08-09T13:00:03.154Z,100718.73
2018-08-09T13:03:07.221Z,100723.45
2018-08-09T13:06:12.376Z,100718.11
2018-08-09T13:09:16.343Z,100709.92
2018-08-09T13:12:20.614Z,100696.98
2018-08-09T13:15:24.722Z,100689.97
2018-08-09T13:18:28.701Z,100676.95
2018-08-09T13:21:34.203Z,100678.23
2018-08-09T13:24:38.476Z,100676.64
2018-08-09T13:27:42.419Z,100663.26
2018-08-09T13:30:46.333Z,100653.47
2018-08-09T13:33:52.085Z,100649.55
2018-08-09T13:36:55.967Z,100643.34
2018-08-09T13:40:00.396Z,100642.91
2018-08-09T13:43:04.331Z,100635.20
2018-08-09T13:46:08.280Z,100639.50
2018-08-09T13:49:12.224Z,100637.17
2018-08-09T13:52:17.169Z,100628.44
2018-08-09T13:55:21.361Z,100623.46
2018-08-09T13:58:25.566Z,100619.64
2018-08-09T14:01:29.903Z,100606.23
2018-08-09T14:04:34.861Z,100596.80
2018-08-09T14:07:39.983Z,100588.98
2018-08-09T14:10:43.921Z,100585.22
2018-08-09T14:13:48.421Z,100575.58
2018-08-09T14:16:52.351Z,100558.86
2018-08-09T14:19:56.470Z,100554.19
2018-08-09T14:23:01.124Z,100545.05
2018-08-09T14:26:05.389Z,100527.78
2018-08-09T14:29:09.714Z,100519.86
2018-08-09T14:32:13.670Z,100507.35
2018-08-09T14:35:17.673Z,100508.67
2018-08-09T14:38:21.920Z,100498.50
2018-08-09T14:41:25.862Z,100487.94
2018-08-09T14:44:30.116Z,100483.97
2018-08-09T14:47:34.092Z,100479.00
2018-08-09T14:50:38.344Z,100476.97
2018-08-09T14:53:42.310Z,100466.94
2018-08-09T14:56:46.408Z,100461.67
2018-08-09T14:59:51.736Z,100454.79
2018-08-09T15:02:56.434Z,100445.58
2018-08-09T15:06:00.507Z,100436.73
2018-08-09T15:09:07.615Z,100430.66
2018-08-09T15:12:11.534Z,100416.95
2018-08-09T15:15:15.784Z,100410.16
2018-08-09T15:18:19.961Z,100408.02
2018-08-09T15:21:26.368Z,100390.23
2018-08-09T15:24:30.542Z,100401.82
2018-08-09T15:27:34.551Z,100405.70
2018-08-09T15:30:38.702Z,100403.97
2018-08-09T15:33:42.734Z,100393.39
2018-08-09T15:36:47.721Z,100381.39
2018-08-09T15:39:52.041Z,100373.77
2018-08-09T15:42:56.804Z,100373.77
2018-08-09T15:46:01.048Z,100357.68
2018-08-09T15:49:05.268Z,100349.53
2018-08-09T15:52:09.287Z,100354.31
2018-08-09T15:55:14.262Z,100348.94
2018-08-09T15:58:18.382Z,100338.56
2018-08-09T16:01:22.658Z,100321.97
2018-08-09T16:04:26.874Z,100317.91
2018-08-09T16:07:31.020Z,100313.75
2018-08-09T16:10:34.961Z,100298.18
2018-08-09T16:13:39.007Z,100293.52
2018-08-09T16:16:43.002Z,100285.06
2018-08-09T16:19:47.196Z,100264.41
2018-08-09T16:22:51.402Z,100256.98
2018-08-09T16:26:08.473Z,100254.54
2018-08-09T16:29:12.701Z,100255.88
2018-08-09T16:32:16.929Z,100254.55
2018-08-09T16:35:20.852Z,100250.86
2018-08-09T16:38:25.235Z,100236.34
2018-08-09T16:41:29.147Z,100227.38
2018-08-09T16:44:33.089Z,100223.13
2018-08-09T16:47:38.065Z,100220.77
2018-08-09T16:50:42.173Z,100226.03
2018-08-09T16:53:46.638Z,100235.45
2018-08-09T16:56:50.550Z,100230.65
2018-08-09T16:59:54.542Z,100216.95
2018-08-09T17:02:59.046Z,100217.73
2018-08-09T17:06:03.312Z,100203.99
2018-08-09T17:09:10.203Z,100195.56
2018-08-09T17:12:14.492Z,100180.20
2018-08-09T17:15:24.273Z,100168.34
2018-08-09T17:18:29.383Z,100159.58
2018-08-09T17:21:33.311Z,100147.33
2018-08-09T17:24:37.460Z,100145.20
2018-08-09T17:27:42.723Z,100135.42
2018-08-09T17:30:46.716Z,100157.02
2018-08-09T17:33:51.105Z,100411.54
2018-08-09T17:36:55.232Z,100482.73
2018-08-09T17:40:02.628Z,100458.58
2018-08-09T17:43:07.460Z,100435.40
2018-08-09T17:46:13.221Z,100399.41
2018-08-09T17:49:17.109Z,100401.91
2018-08-09T17:52:22.069Z,100342.66
2018-08-09T17:55:26.245Z,100311.80
2018-08-09T17:58:32.165Z,100277.23
2018-08-09T18:01:36.423Z,100287.87
2018-08-09T18:04:40.600Z,100296.95
2018-08-09T18:07:44.696Z,100290.01
2018-08-09T18:10:48.653Z,100317.28
2018-08-09T18:13:52.675Z,100333.47
2018-08-09T18:16:58.951Z,100334.69
2018-08-09T18:20:03.931Z,100323.90
2018-08-09T18:23:12.103Z,100313.81
2018-08-09T18:26:16.132Z,100308.91
2018-08-09T18:29:20.061Z,100305.00
2018-08-09T18:32:24.590Z,100302.41
2018-08-09T18:35:28.775Z,100310.30
2018-08-09T18:38:33.077Z,100319.84
2018-08-09T18:41:37.267Z,100330.18
2018-08-09T18:44:41.232Z,100315.08
2018-08-09T18:47:45.674Z,100305.61
2018-08-09T18:50:49.725Z,100310.88
2018-08-09T18:53:54.020Z,100309.38
2018-08-09T18:56:58.389Z,100308.55
2018-08-09T19:00:02.527Z,100281.05
2018-08-09T19:03:06.689Z,100284.33
2018-08-09T19:06:10.701Z,100296.46
2018-08-09T19:09:14.759Z,100301.52
2018-08-09T19:12:18.918Z,100296.30
2018-08-09T19:15:22.849Z,100284.03
2018-08-09T19:18:26.836Z,100282.23
2018-08-09T19:21:31.912Z,100271.42
2018-08-09T19:24:35.872Z,100271.45
2018-08-09T19:27:39.899Z,100272.42
2018-08-09T19:30:44.242Z,100272.12
2018-08-09T19:33:48.189Z,100269.48
2018-08-09T19:36:53.183Z,100269.66
2018-08-09T19:39:57.256Z,100276.64
2018-08-09T19:43:01.170Z,100268.97
2018-08-09T19:46:05.966Z,100273.36
2018-08-09T19:49:09.909Z,100282.54
2018-08-09T19:52:24.283Z,100273.03
2018-08-09T19:56:32.767Z,100286.77
2018-08-09T19:59:37.238Z,100286.09
2018-08-09T20:02:41.599Z,100289.53
2018-08-09T20:05:45.583Z,100288.03
2018-08-09T20:08:49.905Z,100297.67
2018-08-09T20:11:54.471Z,100306.67
2018-08-09T20:15:00.014Z,100301.89
2018-08-09T20:18:03.949Z,100302.55
2018-08-09T20:21:07.906Z,100300.72
2018-08-09T20:24:11.866Z,100300.05
2018-08-09T20:27:15.800Z,100302.94
2018-08-09T20:30:20.501Z,100301.30
2018-08-09T20:33:24.420Z,100299.98
2018-08-09T20:36:28.447Z,100296.88
2018-08-09T20:39:32.347Z,100309.75
2018-08-09T20:42:37.516Z,100308.77
2018-08-09T20:45:41.441Z,100306.62
2018-08-09T20:48:45.634Z,100298.25
2018-08-09T20:51:49.549Z,100295.78
2018-08-09T20:54:53.739Z,100301.78
2018-08-09T20:57:57.884Z,100299.50
2018-08-09T21:01:01.921Z,100306.03
2018-08-09T21:04:06.778Z,100299.48
2018-08-09T21:07:11.066Z,100309.89
2018-08-09T21:10:15.125Z,100316.73
2018-08-09T21:13:19.075Z,100311.03
2018-08-09T21:16:23.066Z,100314.77
2018-08-09T21:19:27.372Z,100318.36
2018-08-09T21:22:31.329Z,100317.02
2018-08-09T21:25:35.294Z,100309.50
2018-08-09T21:28:39.262Z,100313.41
2018-08-09T21:31:43.262Z,100303.77
2018-08-09T21:34:47.208Z,100316.17
2018-08-09T21:37:51.170Z,100315.84
2018-08-09T21:40:58.169Z,100301.80
2018-08-09T21:44:03.211Z,100303.22
2018-08-09T21:47:07.398Z,100302.56
2018-08-09T21:50:13.925Z,100304.84
2018-08-09T21:53:17.893Z,100310.34
2018-08-09T21:56:22.832Z,100316.38
2018-08-09T21:59:26.762Z,100302.17
2018-08-09T22:02:30.757Z,100297.22
2018-08-09T22:05:40.411Z,100297.38
2018-08-09T22:08:50.917Z,100302.43
2018-08-09T22:12:00.123Z,100312.49
2018-08-09T22:15:09.935Z,100308.40
2018-08-09T22:18:19.481Z,100306.25
2018-08-09T22:21:29.260Z,100315.52
2018-08-09T22:24:33.160Z,100318.48
2018-08-09T22:27:37.570Z,100325.63
2018-08-09T22:30:41.855Z,100327.24
2018-08-09T22:33:46.216Z,100324.97
2018-08-09T22:36:50.166Z,100330.31
2018-08-09T22:39:54.679Z,100330.95
2018-08-09T22:42:58.613Z,100321.27
2018-08-09T22:46:03.962Z,100333.51
2018-08-09T22:49:08.237Z,100338.73
2018-08-09T22:52:12.219Z,100339.37
2018-08-09T22:55:16.494Z,100336.42
2018-08-09T22:58:20.781Z,100330.20
2018-08-09T23:01:24.727Z,100334.25
2018-08-09T23:04:28.708Z,100335.03
2018-08-09T23:07:32.852Z,100336.98
2018-08-09T23:10:37.169Z,100342.02
2018-08-09T23:13:42.477Z,100336.16
2018-08-09T23:16:46.746Z,100336.25
2018-08-09T23:19:50.697Z,100346.84
2018-08-09T23:22:54.890Z,100353.84
2018-08-09T23:25:58.857Z,100347.14
2018-08-09T23:29:03.046Z,100353.16
2018-08-09T23:32:07.217Z,100361.55
2018-08-09T23:35:11.629Z,100366.55
2018-08-09T23:38:15.573Z,100354.89
2018-08-09T23:41:20.510Z,100366.93
2018-08-09T23:44:24.694Z,100373.28
2018-08-09T23:47:28.956Z,100373.28
2018-08-09T23:50:33.450Z,100382.00
2018-08-09T23:53:38.251Z,100402.44
2018-08-09T23:56:42.224Z,100393.37
2018-08-09T23:59:46.562Z,100401.34
